KNMI Weerbulletins

Hier vind u de KMNI verwachtingen en de waarnemingen

Bron: KNMI website
Laatste update op 21-02-2019 om 09:56
ZCZC
FBNL50 EHDB 210801
WEERBULLETIN VOOR DE LUCHTVAART
.
GELDIG 210900/211500 UTC
.
SITUATIE: AAN DE NOORDWESTFLANK VAN EEN HOGEDRUKGEBIED BOVEN DE ALPEN
VOERT MET EEN ZUIDWESTELIJKE STROMING MARITIEM POLAIRE LUCHT AAN. IN
DE EERSTE HELFT VAN DE PERIODE VERPLAATST HET HOOG NAAR
MIDDEN-FRANKRIJK. EEN NO-ZW GEORIENTEERD WARMTEFRONT BOVEN DE
NOORDZEE TREKT ZUIDOOSTWAARTS, BEREIKT IN DE EERSTE HELFT VAN DE
PERIODE HET UITERSTE NOORDEN EN LIGT AAN HET EINDE VAN DE PERIODE
BOVEN HET NOORDEN. ACHTER HET WARMTEFRONT WORDT MET EEN WESTELIJKE
STROMING MARITIEM TROPISCHE LUCHT AANGEVOERD.
.
SIGNIFICANT WEER: OP NADERING VAN HET WARMTEFRONT IN HET NOORDEN EN
MIDDEN AF EN TOE LICHTE MOTREGEN. IN HET ZUIDEN AANVANKELIJK EN IN
HET NOORDEN LOKAAL NEVEL. AANVANKELIJK IN BEWOLKING KANS OP MATIGE
IJSAANZETTING.
.
WIND: ZUIDWEST 7-13 KN. LANGS DE KUST EN BOVEN HET IJSSELMEER 13-18
KN. HALVERWEGE DE PERIODE ENKELE KN TOENEMEND.
.
BEWOLKING: IN HET NOORDEN BKN SC/AS 3000-5000 VT, NAAR HET ZUIDOOSTEN
UITBREIDEND. IN HET NOORDEN EN OP STEEDS MEER PLAATSEN LOKAAL BKN SC
1000-1500 VT EN EEN TOENEMENDE KANS OP BKN ST 500-1000 VT. TOPPEN
GELAAGD TOT FL100, IN DE TWEEDE HELFT VAN DE PERIODE VANUIT HET
NOORDWESTEN DALEND NAAR ROND 7000 VT.
.
ZICHT: 5-8 KM. IN NEVEL EN MOTREGEN 3-5 KM, MOGELIJK 1500-3000 M. IN
DE ZUIDELIJKE HELFT SPOEDIG OPLOPEND NAAR MEER DAN 8 KM.
.
NULGRADEN NIVEAU: ROND FL075.
.
HOOGTEWINDEN EN TEMPERATUREN:
       09 UTC:    15 UTC:
0500VT 240/20 +07 260/20 +10
1500VT 240/25 +08 260/20 +07
3000VT 260/20 +05 280/25 +07
FL 050 280/25 +03 300/30 +04
FL 100 300/30 -05 330/30 -04
.
THERMIEK: -
.
MAX. TEMPERATUUR: VAN 10 GRADEN CELSIUS IN HET NOORDEN TOT 13 GRADEN
IN HET ZUIDEN.
.
VOORUITZICHTEN VOOR DE PERIODE VAN 211500/212100: HET WARMTEFRONT
TREKT VERDER ZUIDOOSTWAARTS EN LIGT AAN HET EINDE VAN DE PERIODE
BOVEN HET ZUIDOOSTEN. ER IS IN HET NOORDEN EN OOSTEN EEN TOENEMENDE
KANS OP NEVEL. DE WIND NEEMT GELEIDELIJK ENKELE KN AF.
.
DAGLICHTPERIODE: 06.29 TOT 17.19 UTC.=
NNNN
Bron: KNMI website
Laatste update op 21-02-2019 om 09:56
ZCZC
FC210500 EHVK RRA VOLKEL/VOLKEL   NLD   21 m.
TAF EHVK 210503Z 2106/2118 20005KT 3500 BR SCT030 BKN250
    BECMG 2107/2110 26008G18KT 9999 NSW
    BECMG 2116/2118 28007KT=
ZCZC
FC210500 EHGR RRC GILZE-RIJEN/GILZE-RIJEN   NLD   14 m.
TAF EHGR 210539Z 2106/2118 22007KT 6000 SCT030 BKN250
    TEMPO 2106/2108 4000 BR
    TEMPO 2110/2115 26008G18KT
    PROB30 2110/2113 SCT015 BKN060=
ZCZC
FC210500 EHLW RRE LEEUWARDEN/LEEUWARDEN   NLD   1 m.
TAF EHLW 210552Z 2106/2118 22010KT 8000 BKN100
    PROB30 TEMPO 2108/2110 SCT008 BKN040
    BECMG 2109/2111 SCT012 OVC035
    PROB30 TEMPO 2111/2118 4000 -RADZ SCT008 SCT016 BKN030
    BECMG 2116/2118 27007KT=
ZCZC
FC210500 EHWO RRB WOENSDRECHT/WOENSDRECHT   NLD   19 m.
TAF EHWO 210533Z 2106/2118 24007KT 7000 SCT030 BKN250
    TEMPO 2106/2108 4000 BR
    TEMPO 2110/2115 26008G18KT
    PROB30 2110/2113 SCT015 BKN060=
ZCZC
FC210500 EHKD CCA DE KOOY/DE KOOY   NLD   1 m.
TAF AMD EHKD 210548Z 2106/2118 23011KT 8000 OVC140
    BECMG 2108/2110 SCT017 OVC035
    PROB30 TEMPO 2110/2118 4500 -RADZ SCT012 SCT017 OVC030=
ZCZC
FT210500 EHAM     AMSTERDAM/SCHIPHOL   NLD   -3 m.
TAF EHAM 210505Z 2106/2212 21008KT CAVOK
    PROB40 TEMPO 2107/2113 7000 -RA BKN030
    BECMG 2111/2114 26013KT BKN015
    PROB40 TEMPO 2113/2120 4000 -DZ BKN008
    BECMG 2119/2122 23005KT 6000 NSC
    BECMG 2122/2201 4000 BR
    BECMG 2201/2204 2000
    PROB40 2204/2209 0600 FG VV001
    BECMG 2209/2212 6000 NSW BKN020=
ZCZC
FT210500 EHBK     MAASTRICHT/MAASTRICHT-AACHEN   NLD   114 m.
TAF EHBK 210507Z 2106/2212 23008KT 9999 SCT025
    BECMG 2200/2203 4000 BR
    BECMG 2203/2206 2000 BKN003
    PROB30 2204/2209 0500 FG BKN001
    BECMG 2209/2212 4000 BKN005=
ZCZC
FT210500 EHGG     GRONINGEN/EELDE   NLD   5 m.
TAF EHGG 210507Z 2106/2212 22008KT 8000 NSC
    PROB40 TEMPO 2106/2111 6000 -RADZ BKN030
    BECMG 2108/2111 26011KT BKN010
    PROB40 TEMPO 2111/2120 4500 BR -DZ BKN007
    BECMG 2120/2123 VRB03KT 4000 BR BKN007
    BECMG 2200/2203 2000 BKN004
    PROB40 2203/2209 0600 FG VV001
    BECMG 2206/2209 BKN008
    BECMG 2209/2212 5000 BKN012=
ZCZC
FT210500 EHRD     ROTTERDAM/THE HAGUE AIRPORT   NLD   -5 m.
TAF EHRD 210505Z 2106/2212 21008KT CAVOK
    PROB30 TEMPO 2107/2114 7000 -RA BKN030
    BECMG 2111/2114 26013KT BKN015
    PROB30 TEMPO 2114/2120 4000 -DZ BKN008
    BECMG 2119/2122 23005KT 6000 NSC
    BECMG 2122/2201 4000 BR
    BECMG 2201/2204 2000
    PROB40 2204/2209 0600 FG VV001
    BECMG 2209/2212 6000 NSW BKN020=
ZCZC
FT210500 EHEH     EINDHOVEN/EINDHOVEN   NLD   22 m.
TAF EHEH 210517Z 2106/2212 20007KT 3500 BR SCT040 BKN250
    BECMG 2106/2109 9999 NSW
    TEMPO 2109/2116 25007G17KT
    PROB30 2203/2208 0600 FG OVC000
    PROB40 2208/2212 SCT006 BKN010=
Bron: KNMI website
Laatste update op 21-02-2019 om 09:56
ZCZC
SA210825 EHKD     DE KOOY/DE KOOY   NLD   1 m.
METAR EHKD 210825Z AUTO 23009KT 200V260 4300 BR FEW015CB OVC017 08/07
Q1023 REDZ
GRN 22012KT 6000 BKN020 TEMPO 2500 RADZ FEW010 SCT017=
ZCZC
SA210825 EHFD     F3-FB-1   NLD   50 m.
METAR EHFD 210825Z AUTO 25022KT 8000 FEW017/// BKN033/// BKN038///
08/07 Q1019 REDZ W///H///=
ZCZC
SA210825 EHAM     AMSTERDAM/SCHIPHOL   NLD   -3 m.
METAR EHAM 210825Z 22009KT 9999 SCT043 08/06 Q1024 TEMPO 5000 -RADZ=
ZCZC
SA210825 EHVL     VLIELAND   NLD   10 m.
METAR EHVL 210825Z AUTO 23016KT 1600 -DZ OVC001/// 07/07 Q1023 REDZ RED=
ZCZC
SA210825 EHJR     K13-A   NLD   37 m.
METAR EHJR 210825Z AUTO 23024KT //// // ///////// 07/07 Q1022 RE//
W07/H13=
ZCZC
SA210825 EHLW     LEEUWARDEN/LEEUWARDEN   NLD   1 m.
METAR EHLW 210825Z AUTO 23009KT 200V260 6000 BR SCT009 BKN010 OVC016
08/07 Q1023 GRN=
ZCZC
SA210825 EHDL     ARNHEM/DEELEN   NLD   48 m.
METAR EHDL 210825Z AUTO 21009KT 160V250 7000 BR OVC110 06/05 Q1025 WHT=
ZCZC
SA210825 EHGG     GRONINGEN/EELDE   NLD   5 m.
METAR EHGG 210825Z AUTO 23009KT 9999 NSC 07/05 Q1023 BECMG 5000 -RADZ
BKN012=
ZCZC
SA210825 EHSC     LICHTEILAND GOEREE   NLD   22 m.
METAR EHSC 210825Z AUTO 23020KT 8000 ///////// 07/05 Q1024 W06/H7=
ZCZC
SA210825 EHSA     EURO PLATFORM   NLD   19 m.
METAR EHSA 210825Z AUTO 22021KT 6000 -DZ ///////// 08/07 Q1025
W05/H7=
ZCZC
SA210825 EHWO     WOENSDRECHT/WOENSDRECHT   NLD   19 m.
METAR EHWO 210825Z AUTO 23006KT 210V270 6000 BR OVC140 08/06 Q1025
WHT 24007KT 6000 FEW030 BKN150=
ZCZC
SA210825 EHRD     ROTTERDAM/THE HAGUE AIRPORT   NLD   -5 m.
METAR EHRD 210825Z AUTO 21006KT 180V240 9999 NSC 08/06 Q1025 TEMPO
5000 -RA=
ZCZC
SA210825 EHGR     GILZE-RIJEN/GILZE-RIJEN   NLD   14 m.
METAR EHGR 210825Z AUTO 21005KT 180V250 4500 BR FEW063 OVC130 06/05
Q1026
GRN 21008KT 4000 BR SCT030 BKN140 BECMG 6000 NSW=
ZCZC
SA210825 EHEH     EINDHOVEN/EINDHOVEN   NLD   22 m.
METAR EHEH 210825Z AUTO 23005KT 6000 BR OVC130 07/05 Q1026
WHT 23007KT 5000 BR NSC BECMG 7000 NSW=
ZCZC
SA210825 EHVK     VOLKEL/VOLKEL   NLD   21 m.
METAR EHVK 210825Z AUTO 21006KT 4900 BR OVC130 06/05 Q1026 GRN=
ZCZC
SA210825 EHBK     MAASTRICHT/MAASTRICHT-AACHEN   NLD   114 m.
METAR EHBK 210825Z AUTO 21007KT 9999 NSC 07/05 Q1026 NOSIG=
ZCZC
SA210825 EHFZ     F16-A   NLD   43 m.
METAR EHFZ 210825Z AUTO 23019KT 6000 NSC 08/06 Q1020 W///H///=
ZCZC
SA210825 EHKV     K14-FA-1C   NLD   41 m.
METAR EHKV 210825Z AUTO 23024KT 4900 -RA FEW016 SCT019 BKN025 08/07
Q1023 W///H///=
ZCZC
SA210825 EHMG     L9-FF-1   NLD   44 m.
METAR EHMG 210825Z AUTO 24022KT 5000 BR FEW033 08/07 Q1022 W///H///=
ZCZC
SA210825 EHMA     AWG-1   NLD   40 m.
METAR EHMA 210825Z AUTO 24017KT 6000 FEW007 SCT009 BKN012 07/06 Q1022
W///H///=
ZCZC
SA210825 EHDV     D15-FA-1   NLD   42 m.
METAR EHDV 210825Z AUTO 25017KT 9999 SCT017/// BKN021/// BKN035///
08/06 Q1020 REDZ W///H///=
ZCZC
SA210825 EHAK     A12-CPP   NLD   48 m.
METAR EHAK 210825Z AUTO 25018KT 6000 SCT043/// 08/07 Q1018 W///H///=
ZCZC
SA210825 EHQE     HOORN-A   NLD   50 m.
METAR EHQE 210825Z AUTO 21023KT 8000 FEW021 SCT030 BKN035 08/07 Q1022
W///H///=
ZCZC
SA210825 EHJA     J6-A   NLD   45 m.
METAR EHJA 210825Z AUTO 22022KT 7000 FEW020/// SCT044/// 08/06 Q1021
W///H///=
ZCZC
SA210825 EHPG     P11-B   NLD   41 m.
METAR EHPG 210825Z AUTO 23024KT 6000 FEW032 BKN046 09/07 Q1023
W///H///=
ZCZC
SA210825 EHHW     BUITENGAATS/BG-OHVS2      42 m.
METAR EHHW 210825Z AUTO 27016KT 220V290 //// // FEW002/// BKN007///
BKN009/// 08/07 Q1021 RE// W///H///=
ZCZC
SA210825 EHFS     VLISSINGEN AWS   NLD   8 m.
METAR EHFS 210825Z AUTO 22014KT 6000 NSC 07/06 Q1025 W///H///=